Time;durP1;ratioP1;P1;durP2;ratioP2;P2;SDS_P1;SDS_P2;PMS_P1;PMS_P2;Temp;Humidity;BMP_temperature;BMP_pressure;BME280_temperature;BME280_humidity;BME280_pressure;Samples;Min_cycle;Max_cycle;Signal;HPM_P1;HPM_P2
2022/09/05 00:02:25;;;;;;;3.30;2.40;;;21.10;60.50;;;;;;5030492;28;20092;-74
2022/09/05 00:04:59;;;;;;;2.38;2.17;;;21.10;60.50;;;;;;5030379;28;20053;-74
2022/09/05 00:07:28;;;;;;;2.80;2.33;;;21.10;60.50;;;;;;5034757;28;20059;-74
2022/09/05 00:10:01;;;;;;;2.50;2.20;;;21.10;60.60;;;;;;5050388;28;20067;-73
2022/09/05 00:12:28;;;;;;;2.75;2.00;;;21.10;60.50;;;;;;5050608;28;20084;-73
2022/09/05 00:15:02;;;;;;;2.95;2.38;;;21.10;60.60;;;;;;5050640;28;20057;-74
2022/09/05 00:17:30;;;;;;;;;;;21.10;60.50;;;;;;5050518;28;20387;-73
2022/09/05 00:20:01;;;;;;;2.95;2.40;;;21.00;60.40;;;;;;5050519;28;20011;-73
2022/09/05 00:22:36;;;;;;;2.50;2.17;;;21.00;60.60;;;;;;5046582;28;20140;-73
2022/09/05 00:25:10;;;;;;;;;;;21.10;60.60;;;;;;5031105;28;20136;-73
2022/09/05 00:27:42;;;;;;;2.20;2.00;;;21.00;60.50;;;;;;5030712;28;19921;-72
2022/09/05 00:30:13;;;;;;;3.17;2.40;;;21.00;60.70;;;;;;5030342;28;20055;-72
2022/09/05 00:33:16;;;;;;;2.50;2.15;;;21.10;60.70;;;;;;5030343;28;20111;-73
2022/09/05 00:35:51;;;;;;;3.47;2.47;;;21.00;60.40;;;;;;4954319;28;20419;-73
2022/09/05 00:38:19;;;;;;;3.00;2.13;;;21.10;60.60;;;;;;5019894;28;20137;-73
2022/09/05 00:40:47;;;;;;;2.28;2.05;;;21.10;60.60;;;;;;5030300;28;20057;-72
2022/09/05 00:43:16;;;;;;;2.33;1.90;;;21.00;60.60;;;;;;5029991;28;20053;-72
2022/09/05 00:45:44;;;;;;;3.33;2.33;;;21.00;60.60;;;;;;5031438;28;20073;-73
2022/09/05 00:48:19;;;;;;;2.90;2.33;;;21.00;60.50;;;;;;5030361;28;20063;-73
2022/09/05 00:50:58;;;;;;;3.55;2.20;;;21.10;60.50;;;;;;5030173;28;20486;-72
2022/09/05 00:53:28;;;;;;;2.63;2.20;;;21.00;60.50;;;;;;5030250;28;20060;-73
2022/09/05 00:55:59;;;;;;;2.60;2.17;;;21.00;60.50;;;;;;5030291;28;20141;-73
2022/09/05 00:58:39;;;;;;;2.25;2.00;;;21.00;60.50;;;;;;5030341;28;20064;-73
2022/09/05 01:01:07;;;;;;;2.67;2.08;;;21.00;60.50;;;;;;5030133;28;20494;-73
2022/09/05 01:03:46;;;;;;;2.63;2.10;;;21.00;60.50;;;;;;5030288;28;20049;-73
2022/09/05 01:06:17;;;;;;;2.60;2.10;;;21.00;60.50;;;;;;5029671;28;20054;-73
2022/09/05 01:09:14;;;;;;;3.33;2.20;;;21.00;60.50;;;;;;5030338;28;20136;-73
2022/09/05 01:11:52;;;;;;;2.30;2.10;;;21.00;60.40;;;;;;5029905;28;20132;-72
2022/09/05 01:14:31;;;;;;;2.70;2.20;;;21.00;60.50;;;;;;5038805;28;20057;-71
2022/09/05 01:17:04;;;;;;;2.40;2.05;;;21.00;60.50;;;;;;5046680;28;20056;-71
2022/09/05 01:19:36;;;;;;;2.10;1.90;;;21.00;60.50;;;;;;5031225;28;20462;-71
2022/09/05 01:22:20;;;;;;;2.58;1.98;;;21.00;60.50;;;;;;5032992;28;20236;-71
2022/09/05 01:25:02;;;;;;;2.40;2.13;;;21.10;61.00;;;;;;5047694;28;20162;-72
2022/09/05 01:27:39;;;;;;;2.97;2.33;;;21.00;60.50;;;;;;5033243;28;20132;-72
2022/09/05 01:30:08;;;;;;;3.10;2.30;;;21.00;60.50;;;;;;5034409;28;20052;-71
2022/09/05 01:32:37;;;;;;;2.33;2.10;;;21.00;60.50;;;;;;5034658;28;20064;-71
2022/09/05 01:35:34;;;;;;;2.30;2.10;;;20.90;60.40;;;;;;5033480;28;20067;-71
2022/09/05 01:38:01;;;;;;;2.58;2.08;;;21.00;60.40;;;;;;5034601;28;20395;-71
2022/09/05 01:40:33;;;;;;;2.53;2.30;;;20.90;60.50;;;;;;5048863;28;20053;-71
2022/09/05 01:43:13;;;;;;;3.38;2.58;;;20.90;60.50;;;;;;5044665;28;20057;-71
2022/09/05 01:45:46;;;;;;;2.65;2.40;;;20.90;60.40;;;;;;5053236;28;20474;-71
2022/09/05 01:48:15;;;;;;;3.63;2.20;;;20.90;61.00;;;;;;5053244;28;20140;-71
2022/09/05 01:50:46;;;;;;;3.17;2.70;;;21.00;60.60;;;;;;5053999;28;20128;-71
2022/09/05 01:53:24;;;;;;;2.28;2.00;;;21.00;60.50;;;;;;5053214;28;20473;-71
2022/09/05 01:56:05;;;;;;;4.13;2.33;;;21.00;60.50;;;;;;5045131;28;20056;-71
2022/09/05 01:58:48;;;;;;;2.53;2.15;;;20.90;60.50;;;;;;5033124;28;20076;-71
2022/09/05 02:01:17;;;;;;;2.50;2.28;;;20.90;60.50;;;;;;5032840;28;20053;-71
2022/09/05 02:03:46;;;;;;;2.60;2.40;;;20.90;60.50;;;;;;5034119;28;20066;-72
2022/09/05 02:06:34;;;;;;;2.97;2.50;;;20.90;60.50;;;;;;5032625;28;20487;-71
2022/09/05 02:09:17;;;;;;;2.85;2.38;;;21.00;60.50;;;;;;5030919;28;20588;-71
2022/09/05 02:11:45;;;;;;;3.00;2.20;;;20.90;60.50;;;;;;5033899;28;20046;-71
2022/09/05 02:14:23;;;;;;;2.85;2.45;;;20.90;60.60;;;;;;5033879;28;20396;-72
2022/09/05 02:16:50;;;;;;;3.25;2.35;;;20.90;60.50;;;;;;5036723;28;20067;-72
2022/09/05 02:19:18;;;;;;;2.72;2.30;;;20.90;60.50;;;;;;5052187;28;20140;-71
2022/09/05 02:21:49;;;;;;;2.95;2.35;;;20.90;60.50;;;;;;5052344;28;20052;-71
2022/09/05 02:24:18;;;;;;;2.78;2.45;;;20.90;60.60;;;;;;5050881;28;20145;-71
2022/09/05 02:26:54;;;;;;;2.47;2.25;;;20.80;60.50;;;;;;5052074;28;20128;-73
2022/09/05 02:29:25;;;;;;;2.97;2.55;;;20.80;60.50;;;;;;5052289;28;20128;-72
2022/09/05 02:31:53;;;;;;;2.67;2.40;;;20.80;60.50;;;;;;5051959;28;20060;-71
2022/09/05 02:34:24;;;;;;;3.78;2.80;;;20.80;60.50;;;;;;5052393;28;20486;-71
2022/09/05 02:36:51;;;;;;;2.65;2.40;;;20.80;60.50;;;;;;5052137;28;20496;-71
2022/09/05 02:39:20;;;;;;;2.40;2.20;;;20.80;60.50;;;;;;5042654;28;20132;-71
2022/09/05 02:41:52;;;;;;;2.95;2.65;;;20.80;60.50;;;;;;5032047;28;20064;-73
2022/09/05 02:44:23;;;;;;;2.75;2.30;;;20.80;60.50;;;;;;5033066;28;20410;-71
2022/09/05 02:46:54;;;;;;;2.90;2.42;;;20.80;61.10;;;;;;5032147;28;20053;-71
2022/09/05 02:49:25;;;;;;;2.80;2.40;;;20.80;61.10;;;;;;5032153;28;20049;-71
2022/09/05 02:51:54;;;;;;;2.20;2.00;;;20.80;60.50;;;;;;5031884;28;20057;-71
2022/09/05 02:54:23;;;;;;;3.00;2.33;;;20.80;60.60;;;;;;5046999;28;20055;-73
2022/09/05 02:57:02;;;;;;;2.53;2.33;;;20.80;60.50;;;;;;5051548;28;20059;-72
2022/09/05 02:59:41;;;;;;;2.58;2.22;;;20.80;60.50;;;;;;5052877;28;20127;-71
2022/09/05 03:02:12;;;;;;;4.00;2.42;;;20.80;60.50;;;;;;5051673;28;20063;-71
2022/09/05 03:04:42;;;;;;;2.20;2.00;;;20.70;60.50;;;;;;5051519;28;20048;-71
2022/09/05 03:07:16;;;;;;;4.15;2.30;;;20.80;60.60;;;;;;5049797;28;20549;-71
2022/09/05 03:09:51;;;;;;;2.80;2.45;;;20.80;60.60;;;;;;5051165;28;20552;-71
2022/09/05 03:12:37;;;;;;;;;;;20.80;60.50;;;;;;5051870;28;20104;-71
2022/09/05 03:15:20;;;;;;;;;;;20.70;60.40;;;;;;5053070;28;19920;-71
2022/09/05 03:18:09;;;;;;;3.17;2.33;;;20.60;60.50;;;;;;5051086;28;19925;-72
2022/09/05 03:21:28;;;;;;;2.90;2.38;;;20.60;60.60;;;;;;5051160;28;20675;-71
2022/09/05 03:24:12;;;;;;;2.92;2.60;;;20.70;60.50;;;;;;5031627;28;20053;-71
2022/09/05 03:27:00;;;;;;;2.95;2.53;;;20.60;60.60;;;;;;5032678;28;20072;-71
2022/09/05 03:29:53;;;;;;;2.47;2.22;;;20.60;60.50;;;;;;5031169;28;20140;-71
2022/09/05 03:33:07;;;;;;;2.50;2.28;;;20.70;60.50;;;;;;5032454;28;20137;-71
2022/09/05 03:36:15;;;;;;;2.28;2.08;;;20.70;60.50;;;;;;5031102;28;20132;-71
2022/09/05 03:39:05;;;;;;;3.03;2.47;;;20.60;60.60;;;;;;5032082;28;20053;-71
2022/09/05 03:41:48;;;;;;;2.53;2.33;;;22.00;61.30;;;;;;5026080;28;20558;-71
2022/09/05 03:44:24;;;;;;;2.88;2.58;;;20.60;60.60;;;;;;5031818;28;20049;-71
2022/09/05 03:47:10;;;;;;;3.45;2.60;;;20.60;60.60;;;;;;5030913;28;20145;-71
2022/09/05 03:49:48;;;;;;;2.67;2.47;;;20.70;60.60;;;;;;5031167;28;20057;-72
2022/09/05 03:52:22;;;;;;;2.80;2.50;;;20.60;60.50;;;;;;5047272;28;20490;-72
2022/09/05 03:55:09;;;;;;;2.60;2.40;;;21.40;60.40;;;;;;5031025;28;20057;-71
2022/09/05 03:58:07;;;;;;;2.50;2.30;;;20.60;60.40;;;;;;5030841;28;20041;-71
2022/09/05 04:00:34;;;;;;;3.50;2.70;;;20.60;60.40;;;;;;5031649;28;20053;-71
2022/09/05 04:03:09;;;;;;;3.00;2.28;;;20.60;60.50;;;;;;5031015;28;20479;-71
2022/09/05 04:05:37;;;;;;;2.78;2.50;;;20.60;60.40;;;;;;5031590;28;20045;-71
2022/09/05 04:08:09;;;;;;;2.55;2.35;;;20.60;60.40;;;;;;5031891;28;20064;-71
2022/09/05 04:10:40;;;;;;;3.00;2.70;;;20.60;60.30;;;;;;5030458;28;20509;-71
2022/09/05 04:13:09;;;;;;;3.10;2.42;;;20.70;60.40;;;;;;5030771;28;20136;-71
2022/09/05 04:15:39;;;;;;;2.85;2.47;;;20.70;60.40;;;;;;5030434;28;20065;-71
2022/09/05 04:18:14;;;;;;;4.00;2.53;;;20.60;60.30;;;;;;5030637;28;20513;-71
2022/09/05 04:20:44;;;;;;;2.90;2.50;;;20.60;60.30;;;;;;5044367;28;20048;-71
2022/09/05 04:23:23;;;;;;;2.45;2.20;;;20.60;60.30;;;;;;5050415;28;20060;-71
2022/09/05 04:25:58;;;;;;;2.90;2.60;;;20.60;60.20;;;;;;5050581;28;20064;-72
2022/09/05 04:28:40;;;;;;;2.53;2.33;;;20.60;60.30;;;;;;5050485;28;20049;-72
2022/09/05 04:31:11;;;;;;;2.58;2.22;;;20.70;60.30;;;;;;5050372;28;20095;-71
2022/09/05 04:33:42;;;;;;;2.78;2.40;;;20.60;60.30;;;;;;5046776;28;20072;-71
2022/09/05 04:36:18;;;;;;;2.88;2.60;;;20.60;60.30;;;;;;5031489;28;20049;-71
2022/09/05 04:38:46;;;;;;;2.58;2.38;;;20.70;60.30;;;;;;5031241;28;20068;-71
2022/09/05 04:41:13;;;;;;;2.92;2.58;;;20.60;60.20;;;;;;5049478;28;20136;-71
2022/09/05 04:43:41;;;;;;;2.50;2.25;;;20.60;60.20;;;;;;5047508;28;20124;-71
2022/09/05 04:46:12;;;;;;;3.25;2.95;;;20.60;60.30;;;;;;5049932;28;20067;-71
2022/09/05 04:48:42;;;;;;;2.83;2.45;;;20.60;60.30;;;;;;5045319;28;20093;-71
2022/09/05 04:51:09;;;;;;;2.78;2.42;;;20.60;60.30;;;;;;5049771;28;20052;-71
2022/09/05 04:54:00;;;;;;;3.67;2.65;;;20.60;60.20;;;;;;5049110;28;20140;-71
2022/09/05 04:56:31;;;;;;;3.42;2.70;;;20.60;60.20;;;;;;5050917;28;20064;-71
2022/09/05 04:58:59;;;;;;;2.67;2.42;;;20.60;60.30;;;;;;5053854;28;20429;-71
2022/09/05 05:01:27;;;;;;;3.08;2.60;;;20.50;60.20;;;;;;5055021;28;20405;-71
2022/09/05 05:03:54;;;;;;;2.95;2.65;;;20.60;60.30;;;;;;5053874;28;20053;-71
2022/09/05 05:06:23;;;;;;;2.50;2.30;;;20.60;60.30;;;;;;5054038;28;20560;-71
2022/09/05 05:08:52;;;;;;;3.28;2.83;;;20.60;60.30;;;;;;5054192;28;20055;-71
2022/09/05 05:11:21;;;;;;;3.00;2.67;;;20.50;60.20;;;;;;5050331;28;20570;-71
2022/09/05 05:13:51;;;;;;;2.88;2.58;;;20.50;60.30;;;;;;5053405;28;20464;-71
2022/09/05 05:16:19;;;;;;;2.70;2.50;;;20.50;60.20;;;;;;5053803;28;20608;-71
2022/09/05 05:18:46;;;;;;;2.65;2.45;;;20.50;60.20;;;;;;5054917;28;20382;-71
2022/09/05 05:21:14;;;;;;;3.40;2.60;;;20.50;60.20;;;;;;5053695;28;20075;-71
2022/09/05 05:23:42;;;;;;;3.53;2.70;;;20.50;60.20;;;;;;5053610;28;20056;-71
2022/09/05 05:26:10;;;;;;;4.28;2.85;;;20.50;60.20;;;;;;5045866;28;20053;-71
2022/09/05 05:28:49;;;;;;;3.35;2.50;;;20.50;60.30;;;;;;5033600;28;20128;-71
2022/09/05 05:31:17;;;;;;;2.85;2.53;;;20.50;60.30;;;;;;5034631;28;20049;-72
2022/09/05 05:33:45;;;;;;;2.65;2.28;;;20.50;60.30;;;;;;5033718;28;20132;-72
2022/09/05 05:36:16;;;;;;;2.92;2.72;;;20.50;60.30;;;;;;5041257;28;20404;-71
2022/09/05 05:38:45;;;;;;;2.85;2.55;;;20.50;60.20;;;;;;5052672;28;20474;-74
2022/09/05 05:41:17;;;;;;;3.53;2.42;;;20.50;60.30;;;;;;5049698;28;20136;-73
2022/09/05 05:43:44;;;;;;;2.50;2.30;;;20.50;60.20;;;;;;5050494;28;20053;-74
2022/09/05 05:46:15;;;;;;;3.38;2.63;;;20.50;60.20;;;;;;5049542;28;20063;-73
2022/09/05 05:48:41;;;;;;;3.40;2.65;;;20.50;60.20;;;;;;5033176;28;20049;-74
2022/09/05 05:51:27;;;;;;;3.00;2.70;;;20.50;60.20;;;;;;5041651;28;20057;-72
2022/09/05 05:53:56;;;;;;;3.08;2.60;;;20.50;60.10;;;;;;5053269;28;20486;-72
2022/09/05 05:56:51;;;;;;;2.60;2.40;;;20.50;60.20;;;;;;5053705;28;20052;-71
2022/09/05 05:59:56;;;;;;;3.60;2.80;;;20.50;60.20;;;;;;5023826;28;20049;-70
2022/09/05 06:02:57;;;;;;;2.93;2.60;;;20.50;60.20;;;;;;5033247;28;20080;-71
2022/09/05 06:05:57;;;;;;;4.85;2.85;;;20.50;60.20;;;;;;5022319;28;20049;-71
2022/09/05 06:08:39;;;;;;;3.33;2.92;;;20.50;60.20;;;;;;5032652;28;20453;-74
2022/09/05 06:11:33;;;;;;;4.63;2.90;;;20.50;60.20;;;;;;5033944;28;20052;-74
2022/09/05 06:14:22;;;;;;;2.70;2.50;;;20.50;60.20;;;;;;5032903;28;20067;-74
2022/09/05 06:17:22;;;;;;;3.40;2.65;;;20.50;60.30;;;;;;5048868;28;20057;-73
2022/09/05 06:20:16;;;;;;;2.90;2.55;;;20.80;60.30;;;;;;5032914;28;20053;-72
2022/09/05 06:23:06;;;;;;;2.95;2.60;;;20.50;60.20;;;;;;5032860;28;20136;-74
2022/09/05 06:25:51;;;;;;;2.65;2.45;;;20.50;60.20;;;;;;5032741;28;20065;-73
2022/09/05 06:28:22;;;;;;;3.47;2.63;;;20.50;60.70;;;;;;5032797;28;20055;-71
2022/09/05 06:30:53;;;;;;;5.15;3.20;;;20.50;60.20;;;;;;5032323;28;20403;-71
2022/09/05 06:33:28;;;;;;;4.07;3.35;;;20.40;60.10;;;;;;5035162;28;20053;-74
2022/09/05 06:36:05;;;;;;;3.28;2.67;;;20.50;60.20;;;;;;5051940;28;20391;-74
2022/09/05 06:38:42;;;;;;;2.95;2.50;;;20.50;60.10;;;;;;5052707;28;20076;-71
2022/09/05 06:41:19;;;;;;;3.55;2.72;;;20.50;60.10;;;;;;5050836;28;20144;-71
2022/09/05 06:44:14;;;;;;;2.85;2.55;;;20.60;60.20;;;;;;5051136;28;20037;-71
2022/09/05 06:46:40;;;;;;;3.30;2.50;;;20.60;60.10;;;;;;5057732;28;20490;-71
2022/09/05 06:49:13;;;;;;;3.72;2.47;;;20.50;60.10;;;;;;5048263;28;20080;-71
2022/09/05 06:51:58;;;;;;;3.35;2.80;;;20.50;60.00;;;;;;5045232;28;20045;-71
2022/09/05 06:54:58;;;;;;;3.10;2.60;;;20.60;60.00;;;;;;5053152;28;20056;-71
2022/09/05 06:57:43;;;;;;;3.90;2.42;;;20.60;60.00;;;;;;5035425;28;20055;-72
2022/09/05 07:00:12;;;;;;;;;;;20.60;60.00;;;;;;5051664;28;20150;-71
2022/09/05 07:02:40;;;;;;;4.95;2.55;;;20.50;60.00;;;;;;5043651;28;20012;-71
2022/09/05 07:05:19;;;;;;;3.17;2.55;;;20.50;60.10;;;;;;5031335;28;20052;-73
2022/09/05 07:07:48;;;;;;;2.80;2.30;;;20.60;60.00;;;;;;5030667;28;20136;-72
2022/09/05 07:10:17;;;;;;;3.97;2.40;;;20.60;60.00;;;;;;5031364;28;20079;-72
2022/09/05 07:12:46;;;;;;;2.95;2.65;;;20.60;60.00;;;;;;5030211;28;20068;-72
2022/09/05 07:15:13;;;;;;;3.45;2.70;;;20.60;60.00;;;;;;5038074;28;20273;-72
2022/09/05 07:17:46;;;;;;;3.08;2.30;;;20.60;60.00;;;;;;5046938;28;20057;-71
2022/09/05 07:20:20;;;;;;;4.45;2.50;;;20.60;59.90;;;;;;5031388;28;20057;-71
2022/09/05 07:22:53;;;;;;;2.97;2.60;;;20.60;59.90;;;;;;5031771;28;20064;-71
2022/09/05 07:25:21;;;;;;;3.15;2.42;;;20.60;59.90;;;;;;5031388;28;20568;-71
2022/09/05 07:27:51;;;;;;;4.07;2.95;;;20.60;60.00;;;;;;5031557;28;20059;-71
2022/09/05 07:30:18;;;;;;;3.42;2.72;;;20.60;60.00;;;;;;5036890;28;20136;-71
2022/09/05 07:32:47;;;;;;;4.05;2.50;;;20.60;60.00;;;;;;5031397;28;20181;-74
2022/09/05 07:35:17;;;;;;;4.60;3.00;;;20.60;60.00;;;;;;5030916;28;20132;-71
2022/09/05 07:37:44;;;;;;;5.03;2.90;;;20.60;60.00;;;;;;5031367;28;20494;-74
2022/09/05 07:40:14;;;;;;;5.40;3.10;;;20.50;61.90;;;;;;5030815;28;20056;-71
2022/09/05 07:42:42;;;;;;;5.18;3.00;;;20.60;60.10;;;;;;5030980;28;20133;-71
2022/09/05 07:45:10;;;;;;;6.10;3.15;;;20.60;60.20;;;;;;5031319;28;20510;-72
2022/09/05 07:47:39;;;;;;;5.40;3.40;;;20.60;60.20;;;;;;5032364;28;20046;-71
2022/09/05 07:50:08;;;;;;;4.43;3.00;;;20.60;60.20;;;;;;5030809;28;20482;-71
2022/09/05 07:52:37;;;;;;;5.45;2.90;;;20.60;60.20;;;;;;5031152;28;20582;-71
2022/09/05 07:55:11;;;;;;;6.70;3.13;;;20.60;60.20;;;;;;5030888;28;20140;-72
2022/09/05 07:57:42;;;;;;;5.32;3.05;;;20.70;60.20;;;;;;5032295;28;20061;-71
2022/09/05 08:00:11;;;;;;;6.60;3.25;;;20.70;60.20;;;;;;5030637;28;20486;-71
2022/09/05 08:02:42;;;;;;;6.30;3.42;;;20.60;60.20;;;;;;5035120;28;20080;-71
2022/09/05 08:05:10;;;;;;;7.07;3.10;;;20.70;60.20;;;;;;5047387;28;20498;-71
2022/09/05 08:07:37;;;;;;;7.78;2.95;;;20.70;60.20;;;;;;5034477;28;20128;-71
2022/09/05 08:10:07;;;;;;;7.20;3.00;;;20.70;60.20;;;;;;5050666;28;20060;-73
2022/09/05 08:12:36;;;;;;;7.95;3.40;;;20.70;60.20;;;;;;5050649;28;20060;-71
2022/09/05 08:15:07;;;;;;;5.60;3.17;;;20.70;60.20;;;;;;5047012;28;20061;-72
2022/09/05 08:17:34;;;;;;;7.80;3.30;;;20.70;60.20;;;;;;5039850;28;20422;-72
2022/09/05 08:20:14;;;;;;;4.35;3.42;;;20.70;60.20;;;;;;5030898;28;20049;-73
2022/09/05 08:22:46;;;;;;;7.47;3.10;;;20.70;60.20;;;;;;5031738;28;20511;-73
2022/09/05 08:25:15;;;;;;;6.80;3.50;;;20.70;60.20;;;;;;5031674;28;20487;-71
2022/09/05 08:27:55;;;;;;;4.65;3.03;;;20.70;60.20;;;;;;5031828;28;20049;-74
2022/09/05 08:30:23;;;;;;;4.43;3.05;;;20.70;60.10;;;;;;5043963;28;20486;-73
2022/09/05 08:32:55;;;;;;;5.72;2.88;;;20.70;60.20;;;;;;5054095;28;20063;-73
2022/09/05 08:35:24;;;;;;;7.80;3.00;;;20.80;60.20;;;;;;5049709;28;20052;-73
2022/09/05 08:37:51;;;;;;;6.18;3.25;;;20.70;60.10;;;;;;5050087;28;20540;-73
2022/09/05 08:40:24;;;;;;;6.72;3.17;;;20.80;60.20;;;;;;5054157;28;20053;-73
2022/09/05 08:42:55;;;;;;;4.68;3.13;;;20.80;60.10;;;;;;5054434;28;20049;-73
2022/09/05 08:45:26;;;;;;;5.75;3.28;;;20.80;60.10;;;;;;5054111;28;20462;-73
2022/09/05 08:47:54;;;;;;;4.78;3.03;;;20.80;60.10;;;;;;5054308;28;20053;-74
2022/09/05 08:50:37;;;;;;;3.22;2.67;;;20.80;60.10;;;;;;5054015;28;20057;-74
2022/09/05 08:53:13;;;;;;;4.07;3.50;;;20.80;60.00;;;;;;5054394;28;20057;-72
2022/09/05 08:55:44;;;;;;;5.60;2.80;;;20.80;60.00;;;;;;5054211;28;20057;-72
2022/09/05 08:58:29;;;;;;;9.27;3.67;;;20.80;60.00;;;;;;5055361;28;20152;-73
2022/09/05 09:00:59;;;;;;;6.90;3.03;;;20.80;60.00;;;;;;5050670;28;20067;-72
2022/09/05 09:03:28;;;;;;;4.13;2.97;;;20.80;60.00;;;;;;5034389;28;20057;-73
2022/09/05 09:06:14;;;;;;;5.53;3.00;;;20.90;60.10;;;;;;5033984;28;20063;-73
2022/09/05 09:08:49;;;;;;;6.38;2.80;;;20.90;60.00;;;;;;5035372;28;20099;-73
2022/09/05 09:11:27;;;;;;;4.90;2.83;;;20.90;60.00;;;;;;5033804;28;20059;-73
2022/09/05 09:13:54;;;;;;;6.80;2.85;;;20.90;60.00;;;;;;5034027;28;20578;-73
2022/09/05 09:16:28;;;;;;;5.75;3.03;;;20.90;60.00;;;;;;5053470;28;20056;-73
2022/09/05 09:19:03;;;;;;;5.28;2.88;;;20.90;60.00;;;;;;5053504;28;20045;-73
2022/09/05 09:21:34;;;;;;;3.83;3.05;;;20.90;59.90;;;;;;5053706;28;20144;-73
2022/09/05 09:24:06;;;;;;;5.43;2.65;;;21.00;60.00;;;;;;5053620;28;20438;-74
2022/09/05 09:26:35;;;;;;;4.63;3.05;;;21.00;60.00;;;;;;5053546;28;20053;-74
2022/09/05 09:29:05;;;;;;;4.68;2.70;;;21.00;59.90;;;;;;5049745;28;20132;-74
2022/09/05 09:31:40;;;;;;;4.88;2.80;;;21.00;59.90;;;;;;5044390;28;20087;-74
2022/09/05 09:34:45;;;;;;;3.45;2.92;;;21.00;59.80;;;;;;5053796;28;20052;-73
2022/09/05 09:37:33;;;;;;;3.95;2.50;;;21.10;59.80;;;;;;5039031;28;20059;-74
2022/09/05 09:40:16;;;;;;;3.40;2.65;;;21.10;59.80;;;;;;5053202;28;20053;-74
2022/09/05 09:42:45;;;;;;;4.50;2.90;;;21.10;59.70;;;;;;5052699;28;20057;-74
2022/09/05 09:45:32;;;;;;;3.75;2.60;;;21.10;59.70;;;;;;5051511;28;20060;-74
2022/09/05 09:48:19;;;;;;;3.35;2.40;;;21.20;59.70;;;;;;5026931;28;20049;-72
2022/09/05 09:51:34;;;;;;;5.28;2.80;;;21.20;59.60;;;;;;5048940;28;20064;-72
2022/09/05 09:54:15;;;;;;;3.55;2.40;;;21.20;59.60;;;;;;5028570;28;20064;-72
2022/09/05 09:57:10;;;;;;;3.92;2.83;;;21.20;59.60;;;;;;5033313;28;20068;-72
2022/09/05 09:59:53;;;;;;;4.70;2.45;;;21.30;59.60;;;;;;5016825;28;20049;-72
2022/09/05 10:02:28;;;;;;;2.80;2.50;;;21.30;59.50;;;;;;5033256;28;20104;-72
2022/09/05 10:05:13;;;;;;;3.15;2.50;;;21.30;59.40;;;;;;5034005;28;20387;-72
2022/09/05 10:08:00;;;;;;;3.10;2.40;;;21.40;59.40;;;;;;5034259;28;20167;-73
2022/09/05 10:10:39;;;;;;;5.00;2.85;;;21.40;59.40;;;;;;5032897;28;20049;-72
2022/09/05 10:13:20;;;;;;;3.95;2.60;;;21.40;59.30;;;;;;5033969;28;20064;-73
2022/09/05 10:16:01;;;;;;;3.92;2.63;;;21.40;59.30;;;;;;5032840;28;20056;-74
2022/09/05 10:18:36;;;;;;;3.15;2.50;;;21.50;59.30;;;;;;5033018;28;20085;-72
2022/09/05 10:21:17;;;;;;;3.15;2.50;;;21.50;59.20;;;;;;5032335;28;20045;-72
2022/09/05 10:24:08;;;;;;;2.83;2.40;;;21.60;59.20;;;;;;5047902;28;20045;-71
2022/09/05 10:27:08;;;;;;;3.17;2.50;;;21.60;59.20;;;;;;5046972;28;20100;-72
2022/09/05 10:29:45;;;;;;;2.53;2.33;;;21.60;59.10;;;;;;5050203;28;20059;-71
2022/09/05 10:32:15;;;;;;;3.05;2.40;;;21.70;59.00;;;;;;5049152;28;20487;-71
2022/09/05 10:34:45;;;;;;;2.60;2.38;;;21.70;58.90;;;;;;5032552;28;20067;-73
2022/09/05 10:37:14;;;;;;;3.10;2.40;;;21.70;58.90;;;;;;5032213;28;20072;-73
2022/09/05 10:39:42;;;;;;;2.70;2.35;;;21.80;58.80;;;;;;5033476;28;20053;-73
2022/09/05 10:42:13;;;;;;;2.55;2.00;;;21.70;58.70;;;;;;5033484;28;20079;-72
2022/09/05 10:44:42;;;;;;;3.08;2.50;;;21.80;58.70;;;;;;5038133;28;20056;-72
2022/09/05 10:47:31;;;;;;;4.22;2.60;;;21.80;58.60;;;;;;5043408;28;20053;-73
2022/09/05 10:50:02;;;;;;;3.13;2.40;;;21.90;58.70;;;;;;5031748;28;20046;-74
2022/09/05 10:52:34;;;;;;;3.28;2.28;;;21.80;58.50;;;;;;5048283;28;20165;-74
2022/09/05 10:55:05;;;;;;;2.53;2.10;;;21.90;58.50;;;;;;5031808;28;20133;-73
2022/09/05 10:57:37;;;;;;;3.00;2.20;;;21.90;58.50;;;;;;5046606;28;20414;-74
2022/09/05 11:00:07;;;;;;;3.13;2.45;;;22.00;58.50;;;;;;5051647;28;20124;-74
2022/09/05 11:02:33;;;;;;;2.95;2.17;;;22.00;58.40;;;;;;5052292;28;20052;-74
2022/09/05 11:05:05;;;;;;;2.50;2.28;;;22.00;58.40;;;;;;5051316;28;20136;-72
2022/09/05 11:07:38;;;;;;;2.65;2.30;;;22.00;58.40;;;;;;5052022;28;20061;-72
2022/09/05 11:10:07;;;;;;;2.60;2.22;;;22.00;58.40;;;;;;5051784;28;20375;-71
2022/09/05 11:12:46;;;;;;;2.40;2.13;;;22.00;58.40;;;;;;5051833;28;20472;-73
2022/09/05 11:15:22;;;;;;;2.40;2.20;;;22.10;58.40;;;;;;5052938;28;20053;-74
2022/09/05 11:17:52;;;;;;;3.47;2.33;;;24.00;59.50;;;;;;5051799;28;20067;-74
2022/09/05 11:20:40;;;;;;;3.33;2.10;;;22.10;58.30;;;;;;5051294;28;20049;-74
2022/09/05 11:23:11;;;;;;;2.40;2.20;;;22.10;58.30;;;;;;5051585;28;20060;-74
2022/09/05 11:25:38;;;;;;;2.55;2.00;;;22.20;58.30;;;;;;5051644;28;20057;-73
2022/09/05 11:28:09;;;;;;;2.47;2.20;;;22.10;58.20;;;;;;5052576;28;20049;-74
2022/09/05 11:30:39;;;;;;;2.20;2.00;;;22.20;58.30;;;;;;5067708;28;20049;-73
2022/09/05 11:33:38;;;;;;;2.35;2.15;;;22.20;58.20;;;;;;5052418;28;20080;-74
2022/09/05 11:36:07;;;;;;;2.70;2.22;;;22.20;58.20;;;;;;5051358;28;20482;-74
2022/09/05 11:38:48;;;;;;;2.38;2.17;;;22.20;58.20;;;;;;5051186;28;20063;-74
2022/09/05 11:41:38;;;;;;;2.88;2.10;;;22.30;58.20;;;;;;5044931;28;20046;-73
2022/09/05 11:44:34;;;;;;;2.30;2.10;;;22.30;58.20;;;;;;5031185;28;20053;-74
2022/09/05 11:47:46;;;;;;;2.33;2.00;;;22.30;58.20;;;;;;5031494;28;20402;-73
2022/09/05 11:50:38;;;;;;;5.25;2.80;;;22.30;58.30;;;;;;5031995;28;20075;-73
2022/09/05 11:53:45;;;;;;;7.13;2.83;;;22.30;58.60;;;;;;5031220;28;20484;-73
2022/09/05 11:56:39;;;;;;;6.10;3.28;;;22.40;59.00;;;;;;5030315;28;20137;-74
2022/09/05 11:59:33;;;;;;;3.45;2.80;;;22.50;59.20;;;;;;5031285;28;20061;-73
2022/09/05 12:02:09;;;;;;;5.15;2.67;;;22.60;58.90;;;;;;5030963;28;20055;-74
2022/09/05 12:04:46;;;;;;;5.13;2.70;;;22.60;58.70;;;;;;5048876;28;20132;-74
2022/09/05 12:07:44;;;;;;;5.32;2.72;;;22.60;58.60;;;;;;5048047;28;20060;-74
2022/09/05 12:10:26;;;;;;;6.03;2.90;;;22.60;58.60;;;;;;5037111;28;20049;-72
2022/09/05 12:13:00;;;;;;;4.40;2.50;;;22.70;58.90;;;;;;5045724;28;20057;-74
2022/09/05 12:15:32;;;;;;;4.25;2.55;;;22.70;58.80;;;;;;5029249;28;20051;-74
2022/09/05 12:18:14;;;;;;;3.90;2.60;;;22.60;61.20;;;;;;5029640;28;20055;-74
2022/09/05 12:20:44;;;;;;;4.93;2.90;;;22.70;58.90;;;;;;5029575;28;20056;-74
2022/09/05 12:23:14;;;;;;;4.70;2.65;;;22.70;59.00;;;;;;5030724;28;20049;-74
2022/09/05 12:25:47;;;;;;;6.20;2.60;;;22.70;59.00;;;;;;5030754;28;20057;-74
2022/09/05 12:28:22;;;;;;;9.40;2.50;;;22.70;59.30;;;;;;5030632;28;20053;-73
2022/09/05 12:30:49;;;;;;;6.45;2.60;;;22.80;59.50;;;;;;5031603;28;20132;-74
2022/09/05 12:33:23;;;;;;;5.47;2.40;;;22.80;59.50;;;;;;5030701;28;20069;-73
2022/09/05 12:35:52;;;;;;;5.45;2.30;;;22.80;59.80;;;;;;5030245;28;20073;-73
2022/09/05 12:38:27;;;;;;;4.60;2.40;;;22.90;59.80;;;;;;5046690;28;20479;-74
2022/09/05 12:40:57;;;;;;;3.90;2.10;;;23.00;59.90;;;;;;5030284;28;20060;-74
2022/09/05 12:43:26;;;;;;;5.50;2.40;;;23.10;59.80;;;;;;5030623;28;20049;-74
2022/09/05 12:45:56;;;;;;;8.43;2.38;;;23.10;59.90;;;;;;5030531;28;20141;-74
2022/09/05 12:48:25;;;;;;;4.30;2.25;;;23.20;59.80;;;;;;5030405;28;20069;-74
2022/09/05 12:50:55;;;;;;;7.75;2.65;;;23.30;59.90;;;;;;5032145;28;20049;-74
2022/09/05 12:53:23;;;;;;;5.22;2.60;;;23.30;59.90;;;;;;5030561;28;20509;-74
2022/09/05 12:55:52;;;;;;;6.68;2.85;;;23.40;59.80;;;;;;5030108;28;20057;-74
2022/09/05 12:58:22;;;;;;;5.78;2.95;;;23.50;59.80;;;;;;5031509;28;20061;-73
2022/09/05 13:00:50;;;;;;;5.13;2.95;;;23.60;59.80;;;;;;5029961;28;20137;-74
2022/09/05 13:03:20;;;;;;;5.05;2.95;;;23.60;59.70;;;;;;5030263;28;20501;-74
2022/09/05 13:06:01;;;;;;;4.88;2.70;;;23.60;59.80;;;;;;5029791;28;20132;-73
2022/09/05 13:08:32;;;;;;;6.18;3.60;;;23.70;59.80;;;;;;5030336;28;20077;-74
2022/09/05 13:10:59;;;;;;;5.15;3.50;;;23.70;59.60;;;;;;5030019;28;20050;-74
2022/09/05 13:13:28;;;;;;;5.57;3.00;;;23.80;59.70;;;;;;5030086;28;20107;-74
2022/09/05 13:15:56;;;;;;;5.55;3.17;;;23.80;59.80;;;;;;5030459;28;20132;-72
2022/09/05 13:18:24;;;;;;;5.18;3.03;;;23.90;59.80;;;;;;5035328;28;20042;-72
2022/09/05 13:21:01;;;;;;;5.88;3.40;;;23.90;59.70;;;;;;5033270;28;20132;-74
2022/09/05 13:23:29;;;;;;;6.82;3.13;;;23.90;59.90;;;;;;5033764;28;20057;-74
2022/09/05 13:25:57;;;;;;;4.70;3.15;;;24.00;59.80;;;;;;5033599;28;20060;-74
2022/09/05 13:28:25;;;;;;;4.65;3.00;;;24.00;59.60;;;;;;5033457;28;20055;-74
2022/09/05 13:30:56;;;;;;;7.53;3.40;;;24.00;59.60;;;;;;5033465;28;20188;-74
2022/09/05 13:33:24;;;;;;;4.10;3.00;;;24.00;59.60;;;;;;5033467;28;20053;-74